Cardiff-Wales, United Kingdom

3:31 PM GMT on February 07, 2016 (GMT +0000)
Cardiff | | Change Station
CLOSE
Current Station
Airport
Location: Cardiff-Wales,
Elevation: 220 ft
Nearby Weather Stations

Elev 220 ft 51.40 °N, 3.34 °W | Updated 11 minutes ago

Light Rain
Light Rain
43 °F
Feels Like 35 °F
N
17
Wind Variable Wind from SW
Gusts 29 mph

Today
High -- | Low -- °F
--% Chance of Precip.
Yesterday
High -- | Low -- °F
Precip. -- in
Pressure 29.33 in
Visibility 6.2 miles
Clouds Mostly Cloudy 1900 ft
Overcast 3800 ft
Windchill 35 °F
Dew Point 39 °F
Humidity 87%
Rainfall 0.00 in
Snow Depth Not available.
7:42 AM 5:13 PM
Waning Crescent, 1% visible
METAR EGFF 071520Z AUTO 22015G25KT 9999 -RA BKN019 OVC038 06/04 Q0993
Pressure 29.33 in
Visibility 6.2 miles
Clouds Mostly Cloudy 1900 ft
Overcast 3800 ft
Windchill 35 °F
Dew Point 39 °F
Humidity 87%
Rainfall 0.00 in
Snow Depth Not available.
7:42 AM 5:13 PM
Waning Crescent, 1% visible
METAR EGFF 071520Z AUTO 22015G25KT 9999 -RA BKN019 OVC038 06/04 Q0993

10-Day Weather Forecast

Almanac

Astronomy

Feb. 07, 2016 Rise Set
Actual Time
Civil Twilight
Nautical Twilight
Astronomical Twilight
Moon
Length of Visible Light
Length of Day
Tomorrow will be .
, % of the Moon is Illuminated

Today's Extremes

Country Highs Country Lows

Community

WunderPhotos

Upload Photos

1,891,214 photos uploaded!

WunderBlog® & News

Nearby

Air Quality

  Air Quality AQ Index Pollutant
Not available.

Snow Depth

Station Depth Elevation

Earthquake Activity

City Distance Mag. Time & Date
Minimum magnitude displayed is 2.5.

Coastal Water Temperatures

Place Temperature

Stations

Nearby Weather Stations

Station Location Temp. Windchill Dew Point Humidity Wind Precip. Elev Updated Type